createdAt,value
2018-11-01T00:00:40.952Z,2.30
2018-11-01T00:11:22.387Z,2.40
2018-11-01T00:15:15.163Z,2.40
2018-11-01T00:17:52.411Z,2.40
2018-11-01T00:20:34.598Z,2.40
2018-11-01T00:46:21.467Z,2.30
2018-11-01T00:48:49.645Z,2.40
2018-11-01T00:51:24.679Z,2.80
2018-11-01T00:53:58.895Z,2.90
2018-11-01T02:07:51.111Z,2.70
2018-11-01T02:16:34.673Z,2.90
2018-11-01T03:03:14.079Z,3.60
2018-11-01T03:05:41.546Z,3.90
2018-11-01T03:08:09.077Z,4.00
2018-11-01T03:10:36.554Z,4.00
2018-11-01T03:13:04.118Z,4.10
2018-11-01T03:15:32.354Z,4.10
2018-11-01T03:17:59.821Z,4.20
2018-11-01T03:20:27.214Z,4.20
2018-11-01T03:22:54.610Z,4.20
2018-11-01T03:25:22.254Z,4.20
2018-11-01T03:27:49.836Z,4.30
2018-11-01T03:30:17.274Z,4.30
2018-11-01T03:32:44.713Z,4.40
2018-11-01T03:35:12.176Z,4.40
2018-11-01T03:37:40.201Z,4.50
2018-11-01T03:40:08.651Z,4.50
2018-11-01T03:42:36.106Z,4.60
2018-11-01T03:45:04.154Z,4.70
2018-11-01T03:47:31.594Z,4.70
2018-11-01T03:49:59.009Z,4.70
2018-11-01T03:52:26.433Z,4.70
2018-11-01T03:54:53.922Z,4.70
2018-11-01T03:57:21.333Z,4.70
2018-11-01T03:59:48.737Z,4.60
2018-11-01T04:02:16.150Z,4.60
2018-11-01T04:04:43.585Z,4.60
2018-11-01T04:07:10.967Z,4.50
2018-11-01T04:09:38.372Z,4.50
2018-11-01T04:12:05.857Z,4.50
2018-11-01T04:14:33.257Z,4.50
2018-11-01T04:17:00.699Z,4.40
2018-11-01T04:19:28.098Z,4.40
2018-11-01T04:22:00.140Z,4.40
2018-11-01T04:24:27.553Z,4.30
2018-11-01T04:26:54.969Z,4.30
2018-11-01T04:29:22.381Z,4.30
2018-11-01T04:31:49.845Z,4.20
2018-11-01T04:34:17.317Z,4.20
2018-11-01T04:36:44.714Z,4.10
2018-11-01T04:39:12.113Z,4.10
2018-11-01T04:41:39.599Z,4.10
2018-11-01T04:44:07.294Z,4.20
2018-11-01T04:46:34.673Z,4.20
2018-11-01T04:49:02.247Z,4.20
2018-11-01T04:51:29.659Z,4.30
2018-11-01T04:53:57.092Z,4.30
2018-11-01T04:56:24.513Z,4.30
2018-11-01T04:58:51.909Z,4.30
2018-11-01T05:01:22.078Z,4.40
2018-11-01T05:03:51.036Z,4.40
2018-11-01T05:06:18.842Z,4.40
2018-11-01T05:08:46.244Z,4.40
2018-11-01T05:11:13.653Z,4.40
2018-11-01T05:13:41.106Z,4.50
2018-11-01T05:16:08.562Z,4.40
2018-11-01T05:18:36.012Z,4.40
2018-11-01T05:21:03.466Z,4.30
2018-11-01T05:23:30.871Z,4.20
2018-11-01T05:25:58.323Z,4.20
2018-11-01T05:28:25.697Z,4.20
2018-11-01T05:30:53.153Z,4.20
2018-11-01T05:33:20.522Z,4.20
2018-11-01T05:35:47.933Z,4.30
2018-11-01T05:38:15.389Z,4.20
2018-11-01T05:40:42.792Z,4.20
2018-11-01T05:43:14.793Z,4.20
2018-11-01T05:45:42.210Z,4.20
2018-11-01T05:48:09.781Z,4.30
2018-11-01T05:50:37.184Z,4.30
2018-11-01T05:53:04.868Z,4.30
2018-11-01T05:55:32.265Z,4.40
2018-11-01T05:57:59.657Z,4.30
2018-11-01T06:00:27.070Z,4.40
2018-11-01T06:02:54.522Z,4.40
2018-11-01T06:05:22.092Z,4.40
2018-11-01T06:07:52.495Z,4.40
2018-11-01T06:10:19.998Z,4.40
2018-11-01T06:12:47.413Z,4.40
2018-11-01T06:15:14.875Z,4.50
2018-11-01T06:17:42.429Z,4.60
2018-11-01T06:20:10.482Z,4.60
2018-11-01T06:22:37.888Z,4.50
2018-11-01T06:25:05.988Z,4.50
2018-11-01T06:27:33.425Z,4.50
2018-11-01T06:30:00.919Z,4.50
2018-11-01T06:32:28.359Z,4.40
2018-11-01T06:34:57.913Z,4.50
2018-11-01T06:37:25.345Z,4.50
2018-11-01T06:39:52.819Z,4.50
2018-11-01T06:42:20.241Z,4.50
2018-11-01T06:44:47.675Z,4.50
2018-11-01T06:47:15.166Z,4.50
2018-11-01T06:49:42.576Z,4.50
2018-11-01T06:52:09.976Z,4.50
2018-11-01T06:54:37.401Z,4.50
2018-11-01T06:57:04.842Z,4.40
2018-11-01T06:59:32.258Z,4.40
2018-11-01T07:01:59.681Z,4.40
2018-11-01T07:04:27.064Z,4.50
2018-11-01T07:06:54.482Z,4.50
2018-11-01T07:09:21.943Z,4.50
2018-11-01T07:11:49.323Z,4.50
2018-11-01T07:14:16.709Z,4.60
2018-11-01T07:16:44.201Z,4.60
2018-11-01T07:19:11.585Z,4.80
2018-11-01T07:21:38.989Z,4.80
2018-11-01T07:24:06.426Z,4.80
2018-11-01T07:26:34.043Z,4.70
2018-11-01T07:29:01.329Z,4.70
2018-11-01T07:31:28.796Z,4.60
2018-11-01T07:33:56.232Z,4.60
2018-11-01T07:36:23.632Z,4.60
2018-11-01T07:38:51.502Z,4.60
2018-11-01T07:41:19.307Z,4.60
2018-11-01T07:43:46.766Z,4.70
2018-11-01T07:46:14.672Z,4.70
2018-11-01T07:48:47.794Z,4.70
2018-11-01T07:51:15.982Z,4.80
2018-11-01T07:53:43.627Z,4.70
2018-11-01T07:59:10.702Z,4.80
2018-11-01T08:01:38.261Z,4.80
2018-11-01T08:04:07.868Z,4.80
2018-11-01T08:10:49.114Z,4.90
2018-11-01T08:18:51.103Z,5.10
2018-11-01T08:32:09.748Z,5.20
2018-11-01T08:42:33.133Z,5.70
2018-11-01T08:48:06.235Z,6.00
2018-11-01T08:50:33.662Z,6.10
2018-11-01T08:53:01.153Z,6.10
2018-11-01T08:55:28.548Z,6.10
2018-11-01T08:57:56.537Z,6.20
2018-11-01T09:00:24.190Z,6.30
2018-11-01T09:02:51.632Z,6.40
2018-11-01T09:05:24.126Z,6.50
2018-11-01T09:07:51.625Z,6.50
2018-11-01T09:10:19.155Z,6.60
2018-11-01T09:12:47.109Z,6.60
2018-11-01T09:16:31.701Z,6.60
2018-11-01T09:21:59.097Z,6.70
2018-11-01T09:24:27.350Z,6.80
2018-11-01T09:26:55.195Z,6.80
2018-11-01T09:29:22.681Z,6.80
2018-11-01T09:31:50.085Z,6.90
2018-11-01T09:34:17.474Z,6.90
2018-11-01T09:36:44.902Z,7.00
2018-11-01T09:39:14.081Z,7.10
2018-11-01T09:41:42.041Z,7.20
2018-11-01T09:44:09.447Z,7.30
2018-11-01T09:46:37.228Z,7.30
2018-11-01T09:49:04.625Z,7.40
2018-11-01T09:51:32.129Z,7.40
2018-11-01T09:53:59.546Z,7.50
2018-11-01T09:56:27.092Z,7.60
2018-11-01T09:58:54.492Z,7.60
2018-11-01T10:01:21.877Z,7.70
2018-11-01T10:03:49.360Z,7.70
2018-11-01T10:06:16.909Z,7.70
2018-11-01T10:08:44.321Z,7.80
2018-11-01T10:11:11.728Z,7.90
2018-11-01T10:13:39.228Z,7.90
2018-11-01T10:16:06.722Z,8.00
2018-11-01T10:18:34.153Z,8.10
2018-11-01T10:21:01.577Z,8.10
2018-11-01T10:23:28.983Z,8.20
2018-11-01T10:25:56.425Z,8.20
2018-11-01T10:28:23.885Z,8.30
2018-11-01T10:30:51.317Z,8.30
2018-11-01T10:33:18.737Z,8.40
2018-11-01T10:35:46.153Z,8.50
2018-11-01T10:38:13.578Z,8.50
2018-11-01T10:40:41.099Z,8.60
2018-11-01T10:43:09.625Z,8.70
2018-11-01T10:45:37.105Z,8.70
2018-11-01T10:48:04.588Z,8.80
2018-11-01T10:50:32.065Z,8.80
2018-11-01T10:52:59.473Z,8.90
2018-11-01T10:55:26.918Z,8.90
2018-11-01T10:57:54.882Z,8.90
2018-11-01T11:00:28.531Z,9.00
2018-11-01T11:02:55.799Z,9.00
2018-11-01T11:05:23.257Z,9.10
2018-11-01T11:07:50.957Z,9.10
2018-11-01T11:10:30.409Z,9.10
2018-11-01T11:12:58.065Z,9.20
2018-11-01T11:15:26.347Z,9.10
2018-11-01T11:17:54.195Z,9.20
2018-11-01T11:20:22.025Z,9.10
2018-11-01T11:22:59.876Z,9.20
2018-11-01T11:25:27.767Z,9.30
2018-11-01T11:27:55.441Z,9.30
2018-11-01T11:30:25.337Z,9.40
2018-11-01T11:32:53.147Z,9.50
2018-11-01T11:35:20.745Z,9.50
2018-11-01T11:37:48.284Z,9.60
2018-11-01T11:40:16.370Z,9.60
2018-11-01T11:42:44.164Z,9.60
2018-11-01T11:45:13.414Z,9.60
2018-11-01T11:47:44.531Z,9.60
2018-11-01T11:50:13.937Z,9.70
2018-11-01T11:52:44.648Z,9.80
2018-11-01T11:55:12.515Z,9.80
2018-11-01T12:00:34.941Z,9.90
2018-11-01T12:05:42.060Z,10.00
2018-11-01T12:08:10.660Z,10.00
2018-11-01T12:13:48.155Z,10.10
2018-11-01T12:16:15.858Z,10.10
2018-11-01T12:18:44.283Z,10.20
2018-11-01T12:21:11.842Z,10.20
2018-11-01T12:23:39.371Z,10.30
2018-11-01T12:26:07.034Z,10.30
2018-11-01T12:28:34.833Z,10.40
2018-11-01T12:31:02.457Z,10.40
2018-11-01T12:33:30.124Z,10.40
2018-11-01T12:36:00.848Z,10.40
2018-11-01T12:38:28.516Z,10.30
2018-11-01T12:41:04.050Z,10.30
2018-11-01T12:43:31.687Z,10.40
2018-11-01T12:45:59.285Z,10.40
2018-11-01T12:48:27.178Z,10.40
2018-11-01T12:50:54.978Z,10.40
2018-11-01T12:53:22.537Z,10.40
2018-11-01T12:55:50.204Z,10.40
2018-11-01T12:58:17.940Z,10.40
2018-11-01T13:00:45.483Z,10.50
2018-11-01T13:03:13.081Z,10.40
2018-11-01T13:05:47.442Z,10.40
2018-11-01T13:08:15.123Z,10.40
2018-11-01T13:10:43.000Z,10.40
2018-11-01T13:13:10.644Z,10.50
2018-11-01T13:15:38.183Z,10.40
2018-11-01T13:18:06.036Z,10.40
2018-11-01T13:20:33.559Z,10.50
2018-11-01T13:23:01.341Z,10.40
2018-11-01T13:25:31.105Z,10.40
2018-11-01T13:27:58.846Z,10.40
2018-11-01T13:30:26.415Z,10.30
2018-11-01T13:32:54.021Z,10.30
2018-11-01T13:35:21.821Z,10.10
2018-11-01T13:37:55.035Z,10.20
2018-11-01T13:40:22.817Z,10.10
2018-11-01T13:42:50.569Z,10.10
2018-11-01T13:45:19.825Z,10.10
2018-11-01T13:47:47.420Z,10.00
2018-11-01T13:50:15.029Z,10.00
2018-11-01T13:52:42.593Z,10.10
2018-11-01T13:55:11.345Z,10.00
2018-11-01T13:57:39.343Z,10.00
2018-11-01T14:00:07.995Z,10.00
2018-11-01T14:02:39.203Z,9.90
2018-11-01T14:05:09.400Z,10.00
2018-11-01T14:07:37.371Z,10.00
2018-11-01T14:10:06.574Z,10.00
2018-11-01T14:12:34.238Z,9.90
2018-11-01T14:15:02.311Z,9.90
2018-11-01T14:17:29.565Z,9.80
2018-11-01T14:19:57.199Z,9.80
2018-11-01T14:22:24.999Z,9.80
2018-11-01T14:24:52.833Z,9.70
2018-11-01T14:27:20.636Z,9.70
2018-11-01T14:29:48.952Z,9.60
2018-11-01T14:32:17.038Z,9.50
2018-11-01T14:34:48.913Z,9.50
2018-11-01T14:37:16.581Z,9.50
2018-11-01T14:39:45.331Z,9.40
2018-11-01T14:42:13.038Z,9.40
2018-11-01T14:44:40.886Z,9.30
2018-11-01T14:47:08.652Z,9.30
2018-11-01T14:49:36.279Z,9.20
2018-11-01T14:52:04.407Z,9.20
2018-11-01T14:54:32.539Z,9.10
2018-11-01T14:57:01.733Z,9.10
2018-11-01T14:59:29.724Z,9.10
2018-11-01T15:01:55.570Z,9.00
2018-11-01T15:04:24.112Z,9.00
2018-11-01T15:06:52.057Z,9.00
2018-11-01T15:09:19.881Z,8.90
2018-11-01T15:11:47.819Z,8.80
2018-11-01T15:16:51.197Z,8.70
2018-11-01T15:19:21.701Z,8.60
2018-11-01T15:21:51.541Z,8.50
2018-11-01T15:24:19.351Z,8.50
2018-11-01T15:27:18.395Z,8.50
2018-11-01T15:29:53.088Z,8.50
2018-11-01T15:32:26.661Z,8.40
2018-11-01T15:34:54.513Z,8.30
2018-11-01T15:37:22.411Z,8.20
2018-11-01T15:39:50.298Z,8.20
2018-11-01T15:42:18.511Z,8.20
2018-11-01T15:44:46.656Z,8.30
2018-11-01T15:47:16.573Z,8.20
2018-11-01T15:49:44.360Z,8.20
2018-11-01T15:52:12.381Z,8.20
2018-11-01T15:54:40.485Z,8.20
2018-11-01T15:57:09.049Z,8.10
2018-11-01T15:59:37.451Z,8.00
2018-11-01T16:02:05.618Z,7.90
2018-11-01T16:04:33.728Z,7.90
2018-11-01T16:07:03.004Z,7.90
2018-11-01T16:09:31.314Z,7.90
2018-11-01T16:11:59.575Z,7.90
2018-11-01T16:14:27.357Z,7.90
2018-11-01T16:16:55.413Z,7.80
2018-11-01T16:19:23.405Z,7.80
2018-11-01T16:21:51.783Z,7.90
2018-11-01T16:24:19.872Z,7.80
2018-11-01T16:26:47.883Z,7.80
2018-11-01T16:29:16.829Z,7.80
2018-11-01T16:31:45.044Z,7.90
2018-11-01T16:34:14.495Z,7.80
2018-11-01T16:36:45.737Z,7.80
2018-11-01T16:39:13.738Z,7.80
2018-11-01T16:41:41.488Z,7.90
2018-11-01T16:47:08.537Z,7.90
2018-11-01T16:49:37.027Z,7.80
2018-11-01T16:52:05.074Z,7.80
2018-11-01T16:54:32.894Z,7.90
2018-11-01T16:57:01.297Z,7.90
2018-11-01T16:59:29.178Z,7.90
2018-11-01T17:01:57.227Z,7.90
2018-11-01T17:04:24.764Z,7.90
2018-11-01T17:06:52.306Z,7.90
2018-11-01T17:09:19.753Z,8.00
2018-11-01T17:11:47.140Z,8.00
2018-11-01T17:14:14.649Z,8.00
2018-11-01T17:16:42.057Z,8.00
2018-11-01T17:19:09.510Z,8.00
2018-11-01T17:21:37.440Z,8.00
2018-11-01T17:24:04.964Z,8.10
2018-11-01T17:26:32.502Z,8.10
2018-11-01T17:29:00.032Z,8.10
2018-11-01T17:31:27.673Z,8.10
2018-11-01T17:33:55.133Z,8.20
2018-11-01T17:36:22.669Z,8.20
2018-11-01T17:38:50.145Z,8.20
2018-11-01T17:41:17.591Z,8.20
2018-11-01T17:43:45.074Z,8.20
2018-11-01T17:46:12.590Z,8.20
2018-11-01T17:48:39.939Z,8.20
2018-11-01T17:51:07.493Z,8.20
2018-11-01T17:53:35.016Z,8.10
2018-11-01T17:56:02.456Z,8.20
2018-11-01T17:58:29.844Z,8.20
2018-11-01T18:00:57.277Z,8.10
2018-11-01T18:03:24.663Z,8.20
2018-11-01T18:05:52.132Z,8.10
2018-11-01T18:08:19.643Z,8.20
2018-11-01T18:10:46.997Z,8.10
2018-11-01T18:13:14.453Z,8.20
2018-11-01T18:15:41.924Z,8.20
2018-11-01T18:18:09.355Z,8.20
2018-11-01T18:20:36.778Z,8.20
2018-11-01T18:23:04.267Z,8.10
2018-11-01T18:25:31.824Z,8.20
2018-11-01T18:27:59.184Z,8.10
2018-11-01T18:30:26.602Z,8.10
2018-11-01T18:32:54.131Z,8.20
2018-11-01T18:35:21.426Z,8.20
2018-11-01T18:37:48.870Z,8.20
2018-11-01T18:40:17.515Z,8.20
2018-11-01T18:42:44.875Z,8.20
2018-11-01T18:45:13.556Z,8.20
2018-11-01T18:47:41.593Z,8.20
2018-11-01T18:50:10.010Z,8.20
2018-11-01T18:52:37.481Z,8.20
2018-11-01T18:55:06.118Z,8.20
2018-11-01T18:57:33.561Z,8.20
2018-11-01T19:00:01.070Z,8.20
2018-11-01T19:02:28.503Z,8.30
2018-11-01T19:04:55.916Z,8.20
2018-11-01T19:07:23.522Z,8.20
2018-11-01T19:09:50.889Z,8.30
2018-11-01T19:12:18.297Z,8.30
2018-11-01T19:14:45.738Z,8.30
2018-11-01T19:17:13.150Z,8.30
2018-11-01T19:19:40.757Z,8.20
2018-11-01T19:22:07.980Z,8.30
2018-11-01T19:24:35.402Z,8.30
2018-11-01T19:27:02.918Z,8.30
2018-11-01T19:29:30.301Z,8.30
2018-11-01T19:31:57.689Z,8.30
2018-11-01T19:34:25.214Z,8.30
2018-11-01T19:36:52.608Z,8.30
2018-11-01T19:39:20.065Z,8.40
2018-11-01T19:41:47.491Z,8.40
2018-11-01T19:44:14.878Z,8.40
2018-11-01T19:46:42.309Z,8.40
2018-11-01T19:49:12.661Z,8.30
2018-11-01T19:51:40.097Z,8.30
2018-11-01T19:54:07.623Z,8.40
2018-11-01T19:56:34.958Z,8.30
2018-11-01T19:59:02.439Z,8.40
2018-11-01T20:01:29.825Z,8.40
2018-11-01T20:03:57.210Z,8.30
2018-11-01T20:06:24.640Z,8.20
2018-11-01T20:08:52.089Z,8.30
2018-11-01T20:11:19.581Z,8.30
2018-11-01T20:13:47.034Z,8.30
2018-11-01T20:16:14.451Z,8.20
2018-11-01T20:18:42.060Z,8.30
2018-11-01T20:21:09.293Z,8.30
2018-11-01T20:23:36.704Z,8.30
2018-11-01T20:26:04.197Z,8.30
2018-11-01T20:28:31.614Z,8.30
2018-11-01T20:30:59.085Z,8.30
2018-11-01T20:33:26.556Z,8.30
2018-11-01T20:35:53.940Z,8.20
2018-11-01T20:38:21.456Z,8.20
2018-11-01T20:40:48.789Z,8.20
2018-11-01T20:43:16.205Z,8.30
2018-11-01T20:45:43.616Z,8.30
2018-11-01T20:48:11.079Z,8.20
2018-11-01T20:50:38.475Z,8.20
2018-11-01T20:53:05.953Z,8.20
2018-11-01T20:55:33.406Z,8.20
2018-11-01T20:58:00.817Z,8.20
2018-11-01T21:00:28.237Z,8.20
2018-11-01T21:02:55.692Z,8.20
2018-11-01T21:05:23.248Z,8.20
2018-11-01T21:07:50.696Z,8.20
2018-11-01T21:10:18.164Z,8.10
2018-11-01T21:12:45.686Z,8.10
2018-11-01T21:15:13.861Z,8.00
2018-11-01T21:17:41.297Z,8.00
2018-11-01T21:20:09.004Z,8.00
2018-11-01T21:22:36.419Z,7.90
2018-11-01T21:25:04.075Z,7.90
2018-11-01T21:27:31.514Z,8.00
2018-11-01T21:29:58.910Z,8.00
2018-11-01T21:32:26.330Z,8.00
2018-11-01T21:34:53.768Z,8.10
2018-11-01T21:37:21.216Z,8.00
2018-11-01T21:39:48.614Z,8.00
2018-11-01T21:42:16.043Z,7.90
2018-11-01T21:44:43.479Z,7.90
2018-11-01T21:47:10.873Z,7.80
2018-11-01T21:49:38.261Z,7.80
2018-11-01T21:52:05.809Z,7.80
2018-11-01T21:54:33.357Z,7.80
2018-11-01T21:57:00.837Z,7.70
2018-11-01T21:59:28.248Z,7.80
2018-11-01T22:01:55.666Z,7.80
2018-11-01T22:04:23.089Z,7.70
2018-11-01T22:06:50.513Z,7.80
2018-11-01T22:09:17.920Z,7.80
2018-11-01T22:11:45.366Z,7.60
2018-11-01T22:14:12.798Z,7.60
2018-11-01T22:16:40.199Z,7.70
2018-11-01T22:19:07.654Z,7.70
2018-11-01T22:21:35.333Z,7.60
2018-11-01T22:24:02.741Z,7.50
2018-11-01T22:26:30.186Z,7.40
2018-11-01T22:28:57.625Z,7.40
2018-11-01T22:31:25.241Z,7.40
2018-11-01T22:33:52.670Z,7.40
2018-11-01T22:36:20.064Z,7.50
2018-11-01T22:38:47.603Z,7.40
2018-11-01T22:41:14.985Z,7.40
2018-11-01T22:43:42.374Z,7.30
2018-11-01T22:46:09.864Z,7.20
2018-11-01T22:48:37.306Z,7.20
2018-11-01T22:51:05.293Z,7.20
2018-11-01T22:53:32.794Z,7.10
2018-11-01T22:56:00.157Z,7.10
2018-11-01T22:58:27.605Z,7.10
2018-11-01T23:00:55.738Z,7.10
2018-11-01T23:03:23.137Z,7.00
2018-11-01T23:05:50.545Z,7.00
2018-11-01T23:08:17.971Z,6.90
2018-11-01T23:10:45.409Z,6.90
2018-11-01T23:13:12.822Z,6.80
2018-11-01T23:15:40.268Z,6.80
2018-11-01T23:18:07.670Z,6.80
2018-11-01T23:20:35.092Z,6.80
2018-11-01T23:23:02.522Z,6.80
2018-11-01T23:25:29.942Z,6.80
2018-11-01T23:27:57.370Z,6.80
2018-11-01T23:30:24.808Z,6.80
2018-11-01T23:32:52.206Z,6.80
2018-11-01T23:35:19.593Z,6.80
2018-11-01T23:37:52.738Z,6.70
2018-11-01T23:40:26.030Z,6.80
2018-11-01T23:42:59.230Z,6.70
2018-11-01T23:45:32.349Z,6.60
2018-11-01T23:47:59.379Z,6.40
2018-11-01T23:50:33.533Z,6.30
2018-11-01T23:55:54.551Z,6.20
2018-11-01T23:58:21.974Z,6.10
